createdAt,value
2019-01-06T00:00:31.322Z,7.67
2019-01-06T00:01:31.631Z,7.66
2019-01-06T00:02:31.780Z,7.66
2019-01-06T00:03:31.852Z,7.66
2019-01-06T00:04:31.962Z,7.63
2019-01-06T00:05:31.389Z,7.63
2019-01-06T00:06:32.900Z,7.65
2019-01-06T00:07:32.739Z,7.66
2019-01-06T00:08:32.975Z,7.66
2019-01-06T00:09:33.066Z,7.67
2019-01-06T00:10:33.194Z,7.66
2019-01-06T00:11:32.797Z,7.66
2019-01-06T00:13:33.767Z,7.66
2019-01-06T00:14:33.833Z,7.66
2019-01-06T00:15:33.993Z,7.66
2019-01-06T00:16:34.343Z,7.64
2019-01-06T00:17:34.982Z,7.64
2019-01-06T00:18:34.839Z,7.63
2019-01-06T00:19:35.225Z,7.63
2019-01-06T00:20:35.443Z,7.65
2019-01-06T00:21:35.874Z,7.63
2019-01-06T00:22:35.313Z,7.61
2019-01-06T00:23:36.321Z,7.62
2019-01-06T00:24:36.146Z,7.61
2019-01-06T00:25:36.369Z,7.61
2019-01-06T00:26:36.727Z,7.62
2019-01-06T00:27:37.062Z,7.61
2019-01-06T00:28:37.055Z,7.62
2019-01-06T00:29:38.245Z,7.63
2019-01-06T00:30:38.259Z,7.63
2019-01-06T00:31:37.996Z,7.60
2019-01-06T00:32:38.430Z,7.62
2019-01-06T00:33:38.763Z,7.61
2019-01-06T00:34:38.481Z,7.62
2019-01-06T00:35:39.800Z,7.61
2019-01-06T00:36:39.586Z,7.59
2019-01-06T00:37:39.774Z,7.61
2019-01-06T00:38:40.140Z,7.60
2019-01-06T00:39:40.594Z,7.61
2019-01-06T00:40:40.203Z,7.61
2019-01-06T00:41:41.107Z,7.57
2019-01-06T00:42:41.002Z,7.59
2019-01-06T00:43:41.271Z,7.57
2019-01-06T00:44:41.355Z,7.57
2019-01-06T00:45:41.483Z,7.57
2019-01-06T00:46:41.196Z,7.59
2019-01-06T00:47:42.141Z,7.58
2019-01-06T00:48:42.350Z,7.56
2019-01-06T00:49:42.843Z,7.57
2019-01-06T00:50:42.833Z,7.57
2019-01-06T00:51:42.981Z,7.59
2019-01-06T00:52:42.580Z,7.57
2019-01-06T00:53:43.478Z,7.55
2019-01-06T00:54:43.674Z,7.56
2019-01-06T00:55:43.988Z,7.56
2019-01-06T00:56:44.205Z,7.55
2019-01-06T00:57:44.379Z,7.52
2019-01-06T00:58:44.909Z,7.56
2019-01-06T00:59:44.682Z,7.54
2019-01-06T01:00:44.953Z,7.55
2019-01-06T01:01:45.105Z,7.55
2019-01-06T01:02:45.536Z,7.56
2019-01-06T01:03:44.813Z,7.57
2019-01-06T01:04:46.065Z,7.55
2019-01-06T01:05:46.247Z,7.57
2019-01-06T01:06:46.474Z,7.57
2019-01-06T01:07:46.576Z,7.57
2019-01-06T01:08:46.698Z,7.58
2019-01-06T01:09:46.376Z,7.58
2019-01-06T01:10:47.092Z,7.59
2019-01-06T01:11:47.215Z,7.57
2019-01-06T01:13:50.646Z,7.57
2019-01-06T01:14:47.541Z,7.58
2019-01-06T01:15:47.124Z,7.60
2019-01-06T01:16:48.329Z,7.59
2019-01-06T01:17:48.216Z,7.59
2019-01-06T01:18:48.542Z,7.57
2019-01-06T01:19:48.557Z,7.60
2019-01-06T01:20:48.769Z,7.58
2019-01-06T01:21:48.502Z,7.58
2019-01-06T01:22:49.247Z,7.60
2019-01-06T01:23:49.239Z,7.58
2019-01-06T01:24:49.493Z,7.58
2019-01-06T01:25:49.614Z,7.60
2019-01-06T01:26:49.693Z,7.60
2019-01-06T01:27:49.604Z,7.59
2019-01-06T01:28:50.309Z,7.60
2019-01-06T01:29:50.574Z,7.61
2019-01-06T01:30:51.064Z,7.61
2019-01-06T01:31:51.268Z,7.63
2019-01-06T01:32:51.448Z,7.63
2019-01-06T01:33:51.347Z,7.61
2019-01-06T01:34:52.325Z,7.63
2019-01-06T01:35:52.303Z,7.63
2019-01-06T01:36:52.626Z,7.64
2019-01-06T01:37:52.761Z,7.65
2019-01-06T01:38:53.159Z,7.63
2019-01-06T01:39:52.860Z,7.66
2019-01-06T01:40:54.021Z,7.65
2019-01-06T01:41:53.856Z,7.64
2019-01-06T01:42:53.841Z,7.64
2019-01-06T01:43:54.051Z,7.62
2019-01-06T01:44:54.362Z,7.62
2019-01-06T01:45:54.285Z,7.66
2019-01-06T01:46:55.312Z,7.63
2019-01-06T01:47:55.254Z,7.63
2019-01-06T01:48:55.588Z,7.63
2019-01-06T01:49:55.759Z,7.63
2019-01-06T01:50:55.967Z,7.59
2019-01-06T01:51:55.669Z,7.57
2019-01-06T01:52:56.864Z,7.59
2019-01-06T01:53:56.919Z,7.56
2019-01-06T01:54:56.987Z,7.57
2019-01-06T01:55:57.190Z,7.57
2019-01-06T01:56:57.238Z,7.57
2019-01-06T01:57:56.854Z,7.58
2019-01-06T01:58:57.675Z,7.57
2019-01-06T01:59:58.521Z,7.56
2019-01-06T02:00:58.127Z,7.57
2019-01-06T02:01:58.256Z,7.57
2019-01-06T02:02:58.394Z,7.56
2019-01-06T02:03:57.965Z,7.55
2019-01-06T02:04:58.751Z,7.56
2019-01-06T02:05:58.876Z,7.54
2019-01-06T02:06:59.055Z,7.52
2019-01-06T02:07:59.152Z,7.53
2019-01-06T02:08:59.627Z,7.53
2019-01-06T02:09:59.149Z,7.53
2019-01-06T02:11:00.183Z,7.50
2019-01-06T02:12:00.450Z,7.52
2019-01-06T02:13:00.655Z,7.50
2019-01-06T02:14:00.789Z,7.50
2019-01-06T02:15:00.881Z,7.52
2019-01-06T02:16:00.533Z,7.51
2019-01-06T02:17:01.487Z,7.51
2019-01-06T02:18:01.704Z,7.51
2019-01-06T02:19:02.053Z,7.51
2019-01-06T02:20:02.218Z,7.51
2019-01-06T02:21:02.159Z,7.51
2019-01-06T02:22:02.593Z,7.51
2019-01-06T02:23:03.472Z,7.49
2019-01-06T02:24:03.587Z,7.50
2019-01-06T02:25:03.588Z,7.49
2019-01-06T02:26:04.005Z,7.49
2019-01-06T02:27:05.519Z,7.48
2019-01-06T02:28:04.326Z,7.48
2019-01-06T02:29:04.832Z,7.43
2019-01-06T02:30:04.918Z,7.45
2019-01-06T02:31:05.031Z,7.47
2019-01-06T02:33:04.714Z,7.48
2019-01-06T02:34:05.640Z,7.47
2019-01-06T02:35:06.187Z,7.47
2019-01-06T02:36:06.272Z,7.47
2019-01-06T02:37:06.492Z,7.48
2019-01-06T02:38:06.805Z,7.46
2019-01-06T02:39:06.654Z,7.46
2019-01-06T02:40:07.225Z,7.46
2019-01-06T02:41:07.848Z,7.45
2019-01-06T02:42:07.648Z,7.42
2019-01-06T02:43:07.847Z,7.46
2019-01-06T02:44:08.041Z,7.46
2019-01-06T02:45:07.654Z,7.45
2019-01-06T02:46:08.397Z,7.46
2019-01-06T02:47:08.993Z,7.44
2019-01-06T02:48:08.754Z,7.41
2019-01-06T02:49:08.928Z,7.44
2019-01-06T02:50:08.931Z,7.42
2019-01-06T02:51:08.638Z,7.42
2019-01-06T02:52:09.401Z,7.43
2019-01-06T02:53:09.891Z,7.42
2019-01-06T02:54:09.880Z,7.41
2019-01-06T02:55:10.125Z,7.43
2019-01-06T02:56:10.331Z,7.41
2019-01-06T02:57:09.801Z,7.42
2019-01-06T02:58:10.973Z,7.40
2019-01-06T02:59:11.307Z,7.40
2019-01-06T03:00:11.470Z,7.39
2019-01-06T03:01:11.633Z,7.41
2019-01-06T03:02:11.758Z,7.41
2019-01-06T03:03:11.707Z,7.40
2019-01-06T03:04:13.185Z,7.41
2019-01-06T03:05:13.227Z,7.41
2019-01-06T03:06:12.892Z,7.40
2019-01-06T03:07:13.040Z,7.38
2019-01-06T03:08:13.460Z,7.37
2019-01-06T03:09:13.007Z,7.38
2019-01-06T03:10:14.199Z,7.38
2019-01-06T03:11:14.196Z,7.37
2019-01-06T03:12:14.247Z,7.37
2019-01-06T03:13:14.617Z,7.38
2019-01-06T03:14:14.708Z,7.38
2019-01-06T03:15:14.194Z,7.35
2019-01-06T03:16:15.375Z,7.36
2019-01-06T03:17:15.640Z,7.34
2019-01-06T03:18:15.851Z,7.36
2019-01-06T03:19:16.091Z,7.35
2019-01-06T03:20:16.583Z,7.34
2019-01-06T03:21:16.147Z,7.35
2019-01-06T03:22:17.209Z,7.35
2019-01-06T03:23:17.136Z,7.32
2019-01-06T03:24:17.314Z,7.31
2019-01-06T03:25:17.411Z,7.31
2019-01-06T03:26:17.915Z,7.33
2019-01-06T03:27:17.762Z,7.30
2019-01-06T03:28:18.897Z,7.28
2019-01-06T03:29:18.749Z,7.31
2019-01-06T03:31:18.890Z,7.28
2019-01-06T03:32:18.985Z,7.26
2019-01-06T03:33:18.738Z,7.27
2019-01-06T03:34:19.713Z,7.28
2019-01-06T03:35:19.886Z,7.30
2019-01-06T03:36:19.558Z,7.30
2019-01-06T03:37:19.866Z,7.28
2019-01-06T03:38:19.752Z,7.31
2019-01-06T03:39:19.740Z,7.27
2019-01-06T03:40:20.823Z,7.26
2019-01-06T03:41:21.072Z,7.27
2019-01-06T03:42:21.436Z,7.26
2019-01-06T03:43:21.717Z,7.28
2019-01-06T03:44:22.191Z,7.28
2019-01-06T03:45:22.130Z,7.27
2019-01-06T03:46:23.320Z,7.26
2019-01-06T03:47:23.305Z,7.25
2019-01-06T03:48:23.274Z,7.27
2019-01-06T03:49:23.516Z,7.26
2019-01-06T03:50:23.525Z,7.28
2019-01-06T03:51:23.394Z,7.29
2019-01-06T03:52:24.250Z,7.26
2019-01-06T03:53:24.293Z,7.27
2019-01-06T03:54:24.106Z,7.25
2019-01-06T03:55:24.172Z,7.24
2019-01-06T03:56:24.580Z,7.27
2019-01-06T03:57:24.182Z,7.22
2019-01-06T03:58:25.828Z,7.23
2019-01-06T03:59:25.856Z,7.22
2019-01-06T04:00:26.096Z,7.21
2019-01-06T04:01:26.160Z,7.24
2019-01-06T04:02:26.424Z,7.18
2019-01-06T04:03:25.921Z,7.22
2019-01-06T04:04:27.093Z,7.22
2019-01-06T04:05:27.073Z,7.21
2019-01-06T04:06:27.460Z,7.22
2019-01-06T04:07:27.675Z,7.19
2019-01-06T04:08:28.032Z,7.18
2019-01-06T04:09:27.759Z,7.19
2019-01-06T04:10:28.790Z,7.20
2019-01-06T04:11:28.641Z,7.20
2019-01-06T04:12:28.793Z,7.21
2019-01-06T04:13:28.905Z,7.20
2019-01-06T04:14:29.173Z,7.17
2019-01-06T04:15:28.715Z,7.18
2019-01-06T04:16:30.109Z,7.19
2019-01-06T04:17:30.179Z,7.20
2019-01-06T04:18:30.164Z,7.18
2019-01-06T04:19:30.355Z,7.18
2019-01-06T04:20:30.605Z,7.17
2019-01-06T04:21:30.242Z,7.16
2019-01-06T04:22:31.477Z,7.17
2019-01-06T04:23:31.654Z,7.15
2019-01-06T04:24:32.081Z,7.15
2019-01-06T04:25:32.205Z,7.16
2019-01-06T04:26:32.326Z,7.12
2019-01-06T04:27:31.812Z,7.14
2019-01-06T04:28:33.371Z,7.15
2019-01-06T04:29:33.043Z,7.15
2019-01-06T04:30:33.215Z,7.14
2019-01-06T04:31:33.276Z,7.14
2019-01-06T04:32:33.378Z,7.15
2019-01-06T04:33:33.532Z,7.13
2019-01-06T04:34:34.435Z,7.17
2019-01-06T04:35:34.548Z,7.17
2019-01-06T04:36:34.555Z,7.14
2019-01-06T04:37:34.813Z,7.16
2019-01-06T04:38:35.133Z,7.15
2019-01-06T04:39:35.710Z,7.16
2019-01-06T04:40:35.486Z,7.15
2019-01-06T04:41:35.639Z,7.16
2019-01-06T04:42:35.887Z,7.15
2019-01-06T04:43:35.919Z,7.15
2019-01-06T04:44:35.739Z,7.15
2019-01-06T04:45:36.899Z,7.16
2019-01-06T04:46:37.106Z,7.14
2019-01-06T04:47:37.177Z,7.16
2019-01-06T04:48:37.360Z,7.13
2019-01-06T04:49:37.655Z,7.15
2019-01-06T04:50:37.926Z,7.14
2019-01-06T04:51:37.699Z,7.16
2019-01-06T04:53:37.894Z,7.17
2019-01-06T04:54:38.236Z,7.15
2019-01-06T04:55:37.638Z,7.15
2019-01-06T04:56:38.556Z,7.11
2019-01-06T04:57:38.326Z,7.16
2019-01-06T04:58:38.781Z,7.17
2019-01-06T04:59:39.035Z,7.18
2019-01-06T05:00:44.209Z,7.17
2019-01-06T05:01:38.960Z,7.18
2019-01-06T05:02:40.039Z,7.18
2019-01-06T05:03:39.747Z,7.19
2019-01-06T05:04:39.960Z,7.19
2019-01-06T05:05:40.093Z,7.18
2019-01-06T05:06:40.260Z,7.20
2019-01-06T05:07:39.700Z,7.19
2019-01-06T05:08:41.176Z,7.15
2019-01-06T05:09:41.215Z,7.16
2019-01-06T05:10:41.268Z,7.17
2019-01-06T05:11:41.397Z,7.17
2019-01-06T05:12:41.610Z,7.19
2019-01-06T05:13:41.069Z,7.19
2019-01-06T05:14:42.221Z,7.18
2019-01-06T05:15:42.140Z,7.17
2019-01-06T05:16:42.766Z,7.18
2019-01-06T05:17:42.517Z,7.17
2019-01-06T05:18:42.663Z,7.11
2019-01-06T05:19:42.293Z,7.15
2019-01-06T05:20:43.409Z,7.16
2019-01-06T05:21:43.393Z,7.16
2019-01-06T05:22:43.531Z,7.12
2019-01-06T05:23:43.670Z,7.15
2019-01-06T05:24:43.786Z,7.13
2019-01-06T05:25:43.395Z,7.10
2019-01-06T05:26:44.379Z,7.11
2019-01-06T05:27:44.454Z,7.10
2019-01-06T05:28:44.616Z,7.12
2019-01-06T05:29:44.751Z,7.12
2019-01-06T05:30:44.918Z,7.11
2019-01-06T05:31:44.402Z,7.11
2019-01-06T05:32:45.545Z,7.10
2019-01-06T05:33:45.503Z,7.11
2019-01-06T05:34:45.433Z,7.10
2019-01-06T05:35:45.644Z,7.08
2019-01-06T05:36:45.827Z,7.08
2019-01-06T05:37:45.559Z,7.06
2019-01-06T05:38:46.326Z,7.04
2019-01-06T05:39:46.355Z,7.05
2019-01-06T05:40:46.574Z,7.04
2019-01-06T05:41:46.753Z,7.03
2019-01-06T05:42:47.053Z,7.02
2019-01-06T05:43:46.404Z,7.01
2019-01-06T05:44:47.197Z,7.02
2019-01-06T05:45:47.443Z,7.03
2019-01-06T05:46:47.606Z,6.98
2019-01-06T05:47:47.777Z,7.00
2019-01-06T05:48:48.229Z,6.99
2019-01-06T05:49:47.637Z,6.99
2019-01-06T05:50:48.971Z,7.00
2019-01-06T05:51:49.224Z,6.99
2019-01-06T05:52:49.372Z,6.99
2019-01-06T05:53:49.620Z,6.98
2019-01-06T05:54:50.010Z,7.00
2019-01-06T05:55:49.939Z,6.98
2019-01-06T05:56:50.668Z,6.98
2019-01-06T05:57:50.501Z,6.96
2019-01-06T05:58:50.728Z,6.96
2019-01-06T05:59:51.063Z,6.95
2019-01-06T06:00:51.086Z,6.97
2019-01-06T06:01:50.939Z,6.97
2019-01-06T06:02:52.135Z,6.98
2019-01-06T06:03:52.369Z,6.98
2019-01-06T06:04:52.318Z,6.96
2019-01-06T06:05:52.678Z,6.96
2019-01-06T06:06:52.860Z,6.98
2019-01-06T06:07:52.577Z,6.97
2019-01-06T06:08:53.652Z,6.97
2019-01-06T06:09:53.698Z,6.98
2019-01-06T06:10:53.797Z,6.97
2019-01-06T06:11:54.073Z,6.98
2019-01-06T06:12:54.293Z,6.96
2019-01-06T06:13:53.940Z,6.95
2019-01-06T06:15:55.061Z,6.99
2019-01-06T06:16:55.121Z,7.00
2019-01-06T06:17:55.367Z,7.02
2019-01-06T06:18:55.573Z,7.01
2019-01-06T06:19:54.898Z,7.02
2019-01-06T06:20:56.014Z,7.03
2019-01-06T06:21:56.112Z,7.03
2019-01-06T06:22:56.347Z,7.05
2019-01-06T06:23:56.519Z,7.03
2019-01-06T06:24:56.531Z,7.04
2019-01-06T06:25:56.062Z,7.04
2019-01-06T06:26:56.967Z,7.04
2019-01-06T06:27:57.377Z,7.05
2019-01-06T06:28:57.483Z,7.05
2019-01-06T06:29:57.646Z,7.06
2019-01-06T06:30:58.000Z,7.04
2019-01-06T06:31:57.563Z,7.04
2019-01-06T06:32:58.950Z,7.06
2019-01-06T06:33:59.033Z,7.07
2019-01-06T06:34:59.095Z,7.07
2019-01-06T06:35:59.085Z,7.07
2019-01-06T06:36:59.162Z,7.06
2019-01-06T06:37:58.758Z,7.06
2019-01-06T06:38:59.615Z,7.06
2019-01-06T06:39:59.831Z,7.07
2019-01-06T06:41:00.040Z,7.07
2019-01-06T06:42:00.452Z,7.08
2019-01-06T06:43:00.502Z,7.09
2019-01-06T06:44:00.323Z,7.10
2019-01-06T06:45:01.633Z,7.08
2019-01-06T06:46:01.315Z,7.08
2019-01-06T06:47:01.585Z,7.11
2019-01-06T06:48:01.928Z,7.11
2019-01-06T06:49:01.726Z,7.11
2019-01-06T06:50:01.631Z,7.10
2019-01-06T06:51:02.344Z,7.12
2019-01-06T06:52:02.427Z,7.11
2019-01-06T06:53:02.621Z,7.11
2019-01-06T06:54:02.829Z,7.11
2019-01-06T06:55:02.863Z,7.13
2019-01-06T06:56:03.778Z,7.16
2019-01-06T06:57:04.536Z,7.18
2019-01-06T06:58:04.825Z,7.19
2019-01-06T06:59:04.896Z,7.18
2019-01-06T07:00:05.283Z,7.18
2019-01-06T07:01:05.100Z,7.19
2019-01-06T07:02:05.472Z,7.20
2019-01-06T07:03:06.265Z,7.20
2019-01-06T07:04:06.439Z,7.21
2019-01-06T07:05:06.757Z,7.20
2019-01-06T07:06:07.052Z,7.21
2019-01-06T07:07:06.877Z,7.22
2019-01-06T07:08:07.589Z,7.22
2019-01-06T07:09:08.206Z,7.22
2019-01-06T07:10:08.206Z,7.24
2019-01-06T07:11:08.223Z,7.24
2019-01-06T07:12:08.498Z,7.24
2019-01-06T07:13:08.434Z,7.21
2019-01-06T07:14:09.313Z,7.22
2019-01-06T07:15:10.073Z,7.22
2019-01-06T07:16:09.903Z,7.22
2019-01-06T07:17:10.212Z,7.22
2019-01-06T07:18:10.237Z,7.22
2019-01-06T07:19:09.823Z,7.23
2019-01-06T07:20:13.452Z,7.23
2019-01-06T07:21:10.722Z,7.21
2019-01-06T07:22:10.576Z,7.21
2019-01-06T07:23:11.009Z,7.21
2019-01-06T07:24:11.447Z,7.21
2019-01-06T07:26:11.764Z,7.21
2019-01-06T07:27:12.072Z,7.19
2019-01-06T07:28:12.214Z,7.19
2019-01-06T07:29:12.946Z,7.18
2019-01-06T07:30:12.618Z,7.19
2019-01-06T07:31:12.244Z,7.17
2019-01-06T07:32:13.469Z,7.18
2019-01-06T07:33:14.028Z,7.18
2019-01-06T07:34:13.504Z,7.16
2019-01-06T07:35:13.875Z,7.17
2019-01-06T07:36:14.016Z,7.18
2019-01-06T07:37:14.562Z,7.16
2019-01-06T07:38:14.776Z,7.18
2019-01-06T07:39:14.629Z,7.18
2019-01-06T07:40:14.760Z,7.16
2019-01-06T07:41:14.874Z,7.17
2019-01-06T07:42:14.286Z,7.16
2019-01-06T07:43:15.486Z,7.18
2019-01-06T07:44:15.806Z,7.17
2019-01-06T07:45:15.907Z,7.19
2019-01-06T07:46:16.075Z,7.19
2019-01-06T07:47:16.229Z,7.20
2019-01-06T07:48:16.154Z,7.19
2019-01-06T07:49:17.091Z,7.20
2019-01-06T07:50:17.019Z,7.22
2019-01-06T07:51:17.176Z,7.17
2019-01-06T07:52:17.365Z,7.18
2019-01-06T07:53:17.353Z,7.18
2019-01-06T07:54:18.767Z,7.19
2019-01-06T07:55:18.389Z,7.20
2019-01-06T07:56:18.493Z,7.20
2019-01-06T07:57:18.224Z,7.20
2019-01-06T07:58:19.065Z,7.21
2019-01-06T07:59:19.047Z,7.22
2019-01-06T08:00:18.909Z,7.20
2019-01-06T08:01:52.008Z,7.20
2019-01-06T08:02:19.823Z,7.23
2019-01-06T08:03:19.657Z,7.21
2019-01-06T08:04:19.840Z,7.23
2019-01-06T08:05:20.105Z,7.24
2019-01-06T08:06:20.056Z,7.27
2019-01-06T08:07:21.098Z,7.26
2019-01-06T08:08:21.070Z,7.28
2019-01-06T08:09:21.027Z,7.28
2019-01-06T08:10:21.251Z,7.29
2019-01-06T08:11:21.767Z,7.32
2019-01-06T08:12:21.506Z,7.30
2019-01-06T08:13:22.636Z,7.31
2019-01-06T08:14:23.065Z,7.32
2019-01-06T08:15:22.846Z,7.34
2019-01-06T08:16:23.303Z,7.34
2019-01-06T08:17:23.582Z,7.35
2019-01-06T08:18:23.304Z,7.37
2019-01-06T08:19:24.184Z,7.38
2019-01-06T08:20:24.654Z,7.40
2019-01-06T08:21:24.834Z,7.44
2019-01-06T08:22:25.014Z,7.45
2019-01-06T08:23:25.447Z,7.47
2019-01-06T08:24:25.032Z,7.47
2019-01-06T08:25:26.057Z,7.49
2019-01-06T08:26:26.073Z,7.49
2019-01-06T08:27:26.233Z,7.53
2019-01-06T08:28:26.139Z,7.53
2019-01-06T08:29:26.324Z,7.54
2019-01-06T08:30:26.021Z,7.56
2019-01-06T08:31:27.016Z,7.58
2019-01-06T08:32:27.164Z,7.61
2019-01-06T08:33:27.625Z,7.72
2019-01-06T08:34:27.791Z,7.74
2019-01-06T08:35:27.938Z,7.74
2019-01-06T08:36:27.355Z,7.75
2019-01-06T08:37:28.416Z,7.75
2019-01-06T08:38:28.525Z,7.75
2019-01-06T08:39:28.736Z,7.78
2019-01-06T08:40:28.930Z,7.77
2019-01-06T08:41:29.649Z,7.76
2019-01-06T08:42:29.032Z,7.77
2019-01-06T08:43:30.308Z,7.77
2019-01-06T08:44:30.459Z,7.76
2019-01-06T08:45:30.610Z,7.76
2019-01-06T08:46:30.764Z,7.75
2019-01-06T08:47:30.929Z,7.73
2019-01-06T08:48:30.383Z,7.69
2019-01-06T08:49:31.807Z,7.68
2019-01-06T08:50:31.958Z,7.63
2019-01-06T08:51:32.103Z,7.63
2019-01-06T08:52:32.176Z,7.63
2019-01-06T08:53:32.894Z,7.63
2019-01-06T08:54:32.448Z,7.63
2019-01-06T08:55:36.328Z,7.64
2019-01-06T08:56:33.560Z,7.64
2019-01-06T08:57:33.973Z,7.65
2019-01-06T08:58:34.090Z,7.65
2019-01-06T08:59:34.603Z,7.68
2019-01-06T09:00:34.062Z,7.68
2019-01-06T09:01:35.238Z,7.69
2019-01-06T09:02:35.339Z,7.71
2019-01-06T09:03:35.656Z,7.72
2019-01-06T09:04:36.107Z,7.72
2019-01-06T09:05:35.994Z,7.74
2019-01-06T09:06:35.921Z,7.74
2019-01-06T09:07:36.759Z,7.75
2019-01-06T09:08:36.825Z,7.75
2019-01-06T09:09:45.334Z,7.76
2019-01-06T09:10:37.393Z,7.78
2019-01-06T09:11:37.688Z,7.84
2019-01-06T09:12:42.900Z,7.85
2019-01-06T09:13:38.383Z,7.87
2019-01-06T09:14:38.190Z,7.88
2019-01-06T09:15:38.392Z,7.88
2019-01-06T09:16:38.765Z,7.89
2019-01-06T09:17:39.017Z,7.90
2019-01-06T09:18:38.836Z,7.90
2019-01-06T09:19:39.793Z,7.91
2019-01-06T09:20:39.771Z,7.91
2019-01-06T09:21:39.949Z,7.91
2019-01-06T09:22:40.087Z,7.92
2019-01-06T09:23:40.447Z,7.91
2019-01-06T09:24:39.950Z,7.89
2019-01-06T09:25:41.475Z,7.89
2019-01-06T09:26:41.098Z,7.90
2019-01-06T09:27:41.230Z,7.89
2019-01-06T09:28:41.251Z,7.89
2019-01-06T09:29:41.536Z,7.90
2019-01-06T09:30:40.745Z,7.91
2019-01-06T09:31:41.760Z,7.91
2019-01-06T09:32:42.043Z,7.92
2019-01-06T09:33:42.419Z,7.96
2019-01-06T09:34:42.673Z,7.97
2019-01-06T09:35:43.027Z,7.97
2019-01-06T09:36:42.758Z,7.99
2019-01-06T09:37:44.256Z,8.00
2019-01-06T09:38:44.137Z,8.03
2019-01-06T09:39:44.501Z,8.06
2019-01-06T09:40:44.424Z,8.09
2019-01-06T09:41:44.919Z,8.12
2019-01-06T09:42:44.652Z,8.16
2019-01-06T09:43:45.780Z,8.21
2019-01-06T09:44:46.145Z,8.37
2019-01-06T09:45:46.325Z,8.38
2019-01-06T09:46:47.108Z,8.39
2019-01-06T09:47:46.779Z,8.41
2019-01-06T09:48:46.297Z,8.42
2019-01-06T09:49:47.639Z,8.43
2019-01-06T09:50:47.757Z,8.44
2019-01-06T09:51:48.053Z,8.45
2019-01-06T09:52:48.468Z,8.44
2019-01-06T09:53:48.613Z,8.44
2019-01-06T09:54:48.516Z,8.44
2019-01-06T09:55:49.586Z,8.43
2019-01-06T09:56:49.537Z,8.43
2019-01-06T09:57:49.725Z,8.44
2019-01-06T09:58:50.095Z,8.51
2019-01-06T09:59:50.322Z,8.51
2019-01-06T10:00:49.992Z,8.53
2019-01-06T10:01:52.812Z,8.54
2019-01-06T10:02:51.175Z,8.56
2019-01-06T10:03:51.442Z,8.64
2019-01-06T10:04:54.008Z,8.66
2019-01-06T10:05:51.274Z,8.66
2019-01-06T10:06:54.166Z,8.67
2019-01-06T10:07:52.218Z,8.68
2019-01-06T10:08:51.977Z,8.71
2019-01-06T10:09:52.135Z,8.74
2019-01-06T10:10:52.504Z,8.77
2019-01-06T10:11:52.660Z,8.80
2019-01-06T10:12:52.383Z,8.83
2019-01-06T10:13:53.367Z,8.83
2019-01-06T10:14:53.031Z,8.91
2019-01-06T10:15:53.285Z,8.91
2019-01-06T10:16:53.622Z,8.92
2019-01-06T10:17:53.750Z,8.92
2019-01-06T10:18:53.502Z,8.92
2019-01-06T10:19:54.564Z,8.92
2019-01-06T10:20:57.367Z,8.91
2019-01-06T10:21:54.414Z,8.90
2019-01-06T10:22:54.543Z,8.90
2019-01-06T10:23:54.736Z,8.92
2019-01-06T10:24:54.353Z,8.91
2019-01-06T10:25:55.484Z,8.91
2019-01-06T10:26:55.273Z,8.88
2019-01-06T10:27:55.069Z,8.87
2019-01-06T10:28:55.827Z,8.87
2019-01-06T10:29:56.251Z,8.88
2019-01-06T10:30:55.722Z,8.88
2019-01-06T10:31:56.727Z,8.89
2019-01-06T10:32:56.797Z,8.90
2019-01-06T10:33:56.985Z,8.90
2019-01-06T10:34:57.125Z,8.90
2019-01-06T10:35:57.377Z,8.90
2019-01-06T10:36:56.881Z,8.90
2019-01-06T10:37:57.842Z,8.93
2019-01-06T10:38:57.963Z,8.93
2019-01-06T10:39:57.901Z,8.94
2019-01-06T10:41:01.057Z,8.95
2019-01-06T10:41:58.267Z,9.01
2019-01-06T10:42:58.049Z,9.02
2019-01-06T10:43:59.198Z,9.03
2019-01-06T10:44:59.046Z,9.05
2019-01-06T10:45:59.434Z,9.07
2019-01-06T10:46:59.792Z,9.10
2019-01-06T10:47:59.799Z,9.13
2019-01-06T10:48:59.617Z,9.26
2019-01-06T10:50:00.360Z,9.27
2019-01-06T10:51:00.622Z,9.27
2019-01-06T10:52:00.935Z,9.29
2019-01-06T10:53:00.801Z,9.29
2019-01-06T10:54:01.041Z,9.29
2019-01-06T10:55:00.269Z,9.30
2019-01-06T10:56:01.768Z,9.30
2019-01-06T10:57:02.033Z,9.31
2019-01-06T10:58:02.385Z,9.31
2019-01-06T10:59:04.934Z,9.33
2019-01-06T11:00:03.367Z,9.36
2019-01-06T11:01:03.469Z,9.38
2019-01-06T11:02:03.829Z,9.42
2019-01-06T11:03:04.860Z,9.46
2019-01-06T11:04:04.898Z,9.61
2019-01-06T11:05:04.927Z,9.62
2019-01-06T11:06:04.739Z,9.65
2019-01-06T11:07:04.875Z,9.68
2019-01-06T11:08:05.256Z,9.70
2019-01-06T11:09:05.589Z,9.74
2019-01-06T11:10:05.987Z,9.76
2019-01-06T11:11:06.560Z,9.80
2019-01-06T11:12:06.554Z,9.83
2019-01-06T11:13:06.829Z,9.87
2019-01-06T11:14:07.004Z,9.91
2019-01-06T11:15:07.190Z,9.96
2019-01-06T11:16:07.557Z,10.15
2019-01-06T11:17:07.975Z,10.22
2019-01-06T11:18:07.760Z,10.28
2019-01-06T11:19:07.657Z,10.29
2019-01-06T11:20:08.073Z,10.32
2019-01-06T11:21:08.659Z,10.35
2019-01-06T11:22:09.038Z,10.39
2019-01-06T11:23:08.900Z,10.44
2019-01-06T11:24:08.914Z,10.48
2019-01-06T11:25:09.091Z,10.59
2019-01-06T11:26:09.395Z,10.61
2019-01-06T11:27:09.543Z,10.62
2019-01-06T11:28:10.044Z,10.65
2019-01-06T11:29:10.114Z,10.68
2019-01-06T11:30:10.368Z,10.80
2019-01-06T11:31:10.482Z,10.80
2019-01-06T11:32:10.275Z,10.81
2019-01-06T11:33:11.268Z,10.83
2019-01-06T11:34:11.863Z,10.85
2019-01-06T11:35:12.215Z,10.85
2019-01-06T11:36:12.328Z,10.86
2019-01-06T11:37:12.644Z,10.86
2019-01-06T11:38:13.203Z,10.84
2019-01-06T11:39:13.305Z,10.53
2019-01-06T11:40:12.808Z,10.53
2019-01-06T11:41:13.254Z,10.53
2019-01-06T11:42:14.157Z,10.52
2019-01-06T11:43:15.000Z,10.52
2019-01-06T11:44:14.671Z,10.53
2019-01-06T11:45:14.661Z,10.53
2019-01-06T11:46:14.535Z,10.53
2019-01-06T11:47:14.715Z,10.53
2019-01-06T11:48:15.353Z,10.52
2019-01-06T11:49:15.348Z,10.51
2019-01-06T11:50:15.655Z,10.43
2019-01-06T11:51:15.453Z,10.42
2019-01-06T11:52:15.207Z,10.40
2019-01-06T11:53:16.161Z,10.30
2019-01-06T11:54:18.714Z,10.29
2019-01-06T11:55:16.444Z,10.28
2019-01-06T11:56:15.808Z,10.08
2019-01-06T11:57:16.191Z,10.14
2019-01-06T11:58:16.366Z,10.14
2019-01-06T11:59:17.910Z,10.14
2019-01-06T12:00:17.851Z,10.13
2019-01-06T12:01:18.505Z,10.12
2019-01-06T12:02:18.072Z,10.06
2019-01-06T12:03:18.260Z,10.08
2019-01-06T12:04:19.044Z,10.09
2019-01-06T12:05:19.183Z,10.10
2019-01-06T12:06:19.134Z,10.08
2019-01-06T12:07:19.273Z,10.07
2019-01-06T12:08:19.413Z,10.05
2019-01-06T12:09:19.776Z,9.98
2019-01-06T12:10:20.007Z,9.99
2019-01-06T12:11:20.044Z,10.00
2019-01-06T12:12:20.272Z,10.01
2019-01-06T12:13:22.548Z,10.03
2019-01-06T12:14:20.305Z,10.04
2019-01-06T12:15:20.415Z,10.06
2019-01-06T12:16:23.540Z,10.08
2019-01-06T12:17:20.794Z,10.09
2019-01-06T12:18:20.926Z,10.10
2019-01-06T12:19:21.008Z,10.12
2019-01-06T12:20:21.805Z,10.21
2019-01-06T12:21:21.848Z,10.23
2019-01-06T12:22:21.905Z,10.24
2019-01-06T12:23:22.075Z,10.26
2019-01-06T12:24:22.187Z,10.30
2019-01-06T12:25:22.343Z,10.34
2019-01-06T12:26:22.584Z,10.39
2019-01-06T12:27:23.417Z,10.55
2019-01-06T12:28:23.341Z,10.57
2019-01-06T12:29:23.479Z,10.58
2019-01-06T12:30:23.357Z,10.60
2019-01-06T12:31:23.737Z,10.61
2019-01-06T12:32:24.122Z,10.62
2019-01-06T12:33:24.263Z,10.61
2019-01-06T12:34:24.537Z,10.57
2019-01-06T12:35:24.549Z,10.45
2019-01-06T12:36:25.211Z,10.46
2019-01-06T12:37:25.058Z,10.45
2019-01-06T12:38:25.562Z,10.46
2019-01-06T12:39:25.244Z,10.45
2019-01-06T12:40:26.087Z,10.45
2019-01-06T12:41:26.137Z,10.45
2019-01-06T12:42:25.773Z,10.45
2019-01-06T12:43:25.740Z,10.44
2019-01-06T12:44:27.131Z,10.44
2019-01-06T12:45:26.899Z,10.43
2019-01-06T12:46:27.053Z,10.43
2019-01-06T12:47:27.569Z,10.42
2019-01-06T12:48:30.521Z,10.43
2019-01-06T12:49:28.972Z,10.40
2019-01-06T12:50:28.420Z,10.40
2019-01-06T12:51:28.988Z,10.34
2019-01-06T12:52:29.254Z,10.34
2019-01-06T12:53:29.413Z,10.33
2019-01-06T12:54:29.340Z,10.32
2019-01-06T12:55:29.563Z,10.31
2019-01-06T12:56:29.838Z,10.21
2019-01-06T12:57:31.384Z,10.25
2019-01-06T12:58:32.176Z,10.27
2019-01-06T12:59:30.533Z,10.27
2019-01-06T13:00:31.092Z,10.28
2019-01-06T13:01:31.352Z,10.28
2019-01-06T13:02:32.920Z,10.29
2019-01-06T13:03:31.120Z,10.29
2019-01-06T13:04:31.568Z,10.30
2019-01-06T13:05:33.094Z,10.28
2019-01-06T13:06:31.459Z,10.27
2019-01-06T13:07:31.834Z,10.27
2019-01-06T13:08:32.095Z,10.26
2019-01-06T13:09:32.217Z,10.25
2019-01-06T13:10:32.319Z,10.22
2019-01-06T13:11:32.623Z,10.21
2019-01-06T13:12:32.574Z,10.15
2019-01-06T13:13:37.018Z,10.04
2019-01-06T13:14:33.163Z,10.07
2019-01-06T13:15:34.195Z,10.02
2019-01-06T13:16:34.407Z,9.99
2019-01-06T13:17:34.341Z,9.99
2019-01-06T13:18:34.494Z,9.92
2019-01-06T13:19:34.917Z,9.89
2019-01-06T13:20:35.236Z,9.86
2019-01-06T13:21:35.755Z,9.83
2019-01-06T13:22:35.728Z,9.79
2019-01-06T13:23:36.620Z,9.68
2019-01-06T13:24:36.713Z,9.63